Time;durP1;ratioP1;P1;durP2;ratioP2;P2;SDS_P1;SDS_P2;PMS_P1;PMS_P2;Temp;Humidity;BMP_temperature;BMP_pressure;BME280_temperature;BME280_humidity;BME280_pressure;Samples;Min_cycle;Max_cycle;Signal;HPM_P1;HPM_P2
2022/07/04 00:01:11;;;;;;;;;4.00;2.33;;;;;18.72;54.86;101356.50;4969527;28;45403;-84
2022/07/04 00:03:36;;;;;;;;;3.00;3.00;;;;;18.71;54.75;101352.03;4986988;28;45509;-81
2022/07/04 00:06:02;;;;;;;;;2.67;2.67;;;;;18.73;54.93;101352.91;4989472;28;44945;-82
2022/07/04 00:08:28;;;;;;;;;2.00;2.00;;;;;18.71;54.64;101344.81;4989233;28;45492;-83
2022/07/04 00:10:53;;;;;;;;;1.00;1.00;;;;;18.75;54.73;101356.47;4972066;28;45349;-82
2022/07/04 00:13:18;;;;;;;;;1.00;1.00;;;;;18.73;54.64;101363.69;4971565;28;48146;-81
2022/07/04 00:15:44;;;;;;;;;1.33;1.00;;;;;18.68;55.07;101355.63;4970633;28;45454;-81
2022/07/04 00:18:09;;;;;;;;;2.00;2.00;;;;;18.74;54.85;101362.75;4971977;28;45200;-83
2022/07/04 00:20:35;;;;;;;;;2.00;2.00;;;;;18.75;54.60;101367.25;4971799;28;45607;-81
2022/07/04 00:23:00;;;;;;;;;2.00;2.00;;;;;18.66;54.58;101348.47;4972152;28;46701;-82
2022/07/04 00:25:25;;;;;;;;;2.00;2.00;;;;;18.75;54.27;101356.47;4971839;28;45229;-81
2022/07/04 00:27:51;;;;;;;;;2.00;2.00;;;;;18.69;54.79;101352.03;4987714;28;45758;-81
2022/07/04 00:30:16;;;;;;;;;2.00;2.00;;;;;18.73;55.08;101363.69;4987603;28;45603;-82
2022/07/04 00:32:42;;;;;;;;;2.67;1.00;;;;;18.67;54.71;101347.56;4969678;28;47316;-82
2022/07/04 00:35:08;;;;;;;;;1.67;1.67;;;;;18.66;55.24;101351.16;4968403;28;45669;-82
2022/07/04 00:37:33;;;;;;;;;2.67;2.67;;;;;18.68;54.91;101357.44;4969113;28;44868;-82
2022/07/04 00:39:59;;;;;;;;;2.33;2.33;;;;;18.70;55.28;101369.09;4969711;28;45420;-82
2022/07/04 00:42:24;;;;;;;;;2.00;2.00;;;;;18.63;55.68;101357.47;4968964;28;46576;-82
2022/07/04 00:44:51;;;;;;;;;2.00;1.33;;;;;18.67;56.11;101369.13;4968480;28;45826;-82
2022/07/04 00:47:16;;;;;;;;;2.33;2.33;;;;;18.62;55.75;101360.19;4985325;28;45471;-81
2022/07/04 00:49:42;;;;;;;;;2.67;2.67;;;;;18.65;55.30;101366.44;4970002;28;45391;-82
2022/07/04 00:52:09;;;;;;;;;2.00;2.00;;;;;18.66;55.77;101370.03;4987480;28;45661;-83
2022/07/04 00:54:35;;;;;;;;;3.00;1.33;;;;;18.61;55.25;101371.88;4987227;28;45429;-81
2022/07/04 00:57:01;;;;;;;;;2.33;2.33;;;;;18.63;55.65;101376.34;4970751;28;45317;-82
2022/07/04 00:59:27;;;;;;;;;1.00;1.00;;;;;18.57;55.14;101374.59;4971054;28;45531;-82
2022/07/04 01:01:53;;;;;;;;;2.00;2.00;;;;;18.51;55.42;101371.94;4971750;28;46858;-81
2022/07/04 01:04:18;;;;;;;;;2.00;2.00;;;;;18.52;55.73;101373.75;4971320;28;46071;-82
2022/07/04 01:06:47;;;;;;;;;4.00;3.33;;;;;18.52;55.69;101378.22;4988472;28;45753;-81
2022/07/04 01:09:13;;;;;;;;;2.00;2.00;;;;;18.45;55.58;101374.69;4987768;28;45501;-82
2022/07/04 01:11:39;;;;;;;;;1.00;1.00;;;;;18.51;56.14;101384.53;4989247;28;45455;-81
2022/07/04 01:14:07;;;;;;;;;2.33;2.33;;;;;18.47;56.58;101380.97;4987404;28;45377;-81
2022/07/04 01:16:34;;;;;;;;;2.67;2.00;;;;;18.45;55.55;101389.97;4975062;28;45517;-82
2022/07/04 01:18:59;;;;;;;;;2.67;2.67;;;;;18.36;56.05;101359.50;4973678;28;44882;-81
2022/07/04 01:21:25;;;;;;;;;2.33;2.33;;;;;18.36;56.24;101380.13;4971370;28;46748;-81
2022/07/04 01:23:51;;;;;;;;;4.00;3.00;;;;;18.39;56.08;101374.75;4988625;28;45539;-82
2022/07/04 01:26:16;;;;;;;;;4.00;3.00;;;;;18.35;55.97;101372.97;4989279;28;45475;-81
2022/07/04 01:28:45;;;;;;;;;2.00;2.00;;;;;18.32;56.65;101371.22;4989528;28;45503;-82
2022/07/04 01:31:11;;;;;;;;;1.00;1.00;;;;;18.27;56.71;101369.47;4989948;28;45394;-81
2022/07/04 01:33:37;;;;;;;;;3.00;3.00;;;;;18.18;56.64;101371.31;4971136;28;45454;-81
2022/07/04 01:36:03;;;;;;;;;3.00;3.00;;;;;18.18;57.55;101376.69;4989646;28;45464;-81
2022/07/04 01:38:31;;;;;;;;;2.33;2.00;;;;;18.18;57.30;101382.09;4971894;28;45671;-82
2022/07/04 01:40:56;;;;;;;;;1.00;1.00;;;;;18.15;56.73;101373.13;4989095;28;45960;-81
2022/07/04 01:43:22;;;;;;;;;1.67;1.67;;;;;18.11;56.98;101369.56;4972226;28;44761;-81
2022/07/04 01:45:47;;;;;;;;;4.33;3.00;;;;;18.10;57.22;101370.47;4989601;28;45496;-81
2022/07/04 01:48:14;;;;;;;;;1.33;1.00;;;;;18.06;57.97;101375.91;4988917;28;45460;-82
2022/07/04 01:50:39;;;;;;;;;3.00;2.00;;;;;18.04;56.90;101373.22;4971548;28;47757;-82
2022/07/04 01:53:05;;;;;;;;;2.33;2.33;;;;;18.04;57.76;101377.69;4972588;28;45482;-82
2022/07/04 01:55:31;;;;;;;;;1.33;1.33;;;;;17.98;57.74;101378.63;4971079;28;44862;-81
2022/07/04 01:57:57;;;;;;;;;1.67;1.67;;;;;17.99;57.94;101375.03;4972619;28;45409;-81
2022/07/04 02:03:08;;;;;;;;;2.67;2.67;;;;;17.96;58.22;101375.06;4989323;28;45535;-81
2022/07/04 02:05:34;;;;;;;;;1.00;1.00;;;;;17.90;57.94;101364.34;4971583;28;45653;-82
2022/07/04 02:08:00;;;;;;;;;1.67;1.67;;;;;17.89;58.15;101365.22;5006303;28;45474;-82
2022/07/04 02:10:25;;;;;;;;;2.00;2.00;;;;;17.88;57.39;101372.41;5015108;28;46411;-82
2022/07/04 02:13:06;;;;;;;;;2.00;2.00;;;;;17.87;58.00;101361.66;5027301;28;45381;-82
2022/07/04 02:15:33;;;;;;;;;1.00;1.00;;;;;17.86;57.99;101363.47;5028013;28;45415;-82
2022/07/04 02:18:37;;;;;;;;;2.00;2.00;;;;;17.86;57.98;101362.56;5027979;28;45443;-81
2022/07/04 02:21:03;;;;;;;;;0.33;0.00;;;;;17.72;58.51;101351.84;5028712;28;45553;-82
2022/07/04 02:23:29;;;;;;;;;2.00;2.00;;;;;17.63;59.40;101349.19;5011766;28;45415;-81
2022/07/04 02:25:54;;;;;;;;;1.00;1.00;;;;;17.64;59.65;101354.56;5010355;28;45380;-81
2022/07/04 02:28:20;;;;;;;;;1.00;1.00;;;;;17.58;58.78;101357.31;5009212;28;45634;-82
2022/07/04 02:31:41;;;;;;;;;1.00;1.00;;;;;17.56;60.76;101356.41;5008986;28;47073;-82
2022/07/04 02:34:08;;;;;;;;;1.00;1.00;;;;;17.50;60.24;101357.34;5028276;28;44795;-82
2022/07/04 02:36:34;;;;;;;;;2.00;2.00;;;;;17.52;60.12;101365.41;5010241;28;45504;-83
2022/07/04 02:38:59;;;;;;;;;2.67;1.00;;;;;17.52;59.83;101360.91;5010119;28;45698;-82
2022/07/04 02:41:25;;;;;;;;;1.00;1.00;;;;;17.56;60.11;101359.09;4991145;28;48370;-82
2022/07/04 02:43:51;;;;;;;;;2.00;2.00;;;;;17.52;60.21;101360.91;4990039;28;45433;-82
2022/07/04 02:46:16;;;;;;;;;1.00;1.00;;;;;17.54;60.34;101366.28;5006871;28;45465;-82
2022/07/04 02:48:42;;;;;;;;;2.00;2.00;;;;;17.50;61.16;101362.72;4988895;28;44872;-82
2022/07/04 02:51:07;;;;;;;;;1.00;1.00;;;;;17.48;61.18;101361.81;4992000;28;47087;-82
2022/07/04 02:53:34;;;;;;;;;1.00;1.00;;;;;17.47;60.81;101361.81;4991690;28;45482;-82
2022/07/04 02:56:03;;;;;;;;;2.00;2.00;;;;;17.45;61.86;101364.53;4992657;28;45218;-83
2022/07/04 02:58:32;;;;;;;;;2.67;2.00;;;;;17.42;61.81;101360.97;4991629;28;45479;-82
2022/07/04 03:00:57;;;;;;;;;1.00;1.00;;;;;17.40;61.12;101372.59;4991194;28;45409;-82
2022/07/04 03:03:24;;;;;;;;;2.67;2.67;;;;;17.35;62.22;101363.69;5009632;28;45380;-82
2022/07/04 03:05:50;;;;;;;;;2.00;2.00;;;;;17.39;62.45;101376.22;4992108;28;45147;-82
2022/07/04 03:08:15;;;;;;;;;2.67;2.33;;;;;17.39;62.14;101381.59;4990789;28;45360;-82
2022/07/04 03:10:41;;;;;;;;;5.00;2.00;;;;;17.39;62.28;101378.91;4982830;28;47384;-82
2022/07/04 03:13:07;;;;;;;;;2.67;1.33;;;;;17.38;62.05;101386.97;4971297;28;45389;-82
2022/07/04 03:15:36;;;;;;;;;1.00;1.00;;;;;17.35;62.05;101386.97;4988603;28;45470;-82
2022/07/04 03:18:02;;;;;;;;;2.00;2.00;;;;;17.26;61.94;101376.25;4989227;28;45413;-82
2022/07/04 03:20:27;;;;;;;;;1.00;1.00;;;;;17.22;63.71;101372.69;4987555;28;46426;-82
2022/07/04 03:22:54;;;;;;;;;2.00;1.00;;;;;17.18;62.67;101378.97;4971148;28;45392;-82
2022/07/04 03:25:20;;;;;;;;;2.00;2.00;;;;;17.19;62.97;101388.84;4988632;28;45356;-82
2022/07/04 03:27:46;;;;;;;;;3.00;2.00;;;;;17.17;62.55;101382.56;4971744;28;45562;-82
2022/07/04 03:30:12;;;;;;;;;2.00;2.00;;;;;17.22;63.17;101399.56;4970565;28;47316;-83
2022/07/04 03:32:37;;;;;;;;;2.00;2.00;;;;;17.22;62.77;101391.50;4971306;28;45542;-81
2022/07/04 03:35:03;;;;;;;;;3.00;3.00;;;;;17.17;63.32;101377.19;4988279;28;45485;-82
2022/07/04 03:37:28;;;;;;;;;2.00;2.00;;;;;17.17;63.35;101382.56;4970980;28;45411;-82
2022/07/04 03:40:02;;;;;;;;;1.33;1.33;;;;;17.20;64.16;101387.91;5007803;28;45395;-81
2022/07/04 03:42:28;;;;;;;;;2.00;2.00;;;;;17.18;63.47;101395.97;5011062;28;45532;-81
2022/07/04 03:44:56;;;;;;;;;2.00;2.00;;;;;17.18;63.18;101389.72;4983036;28;45495;-81
2022/07/04 03:47:22;;;;;;;;;2.00;2.00;;;;;17.17;64.93;101379.88;4992682;28;45615;-82
2022/07/04 03:49:47;;;;;;;;;2.67;2.00;;;;;17.10;63.75;101375.41;4975096;28;47138;-81
2022/07/04 03:52:13;;;;;;;;;2.67;2.00;;;;;17.13;64.88;101388.84;4975369;28;45478;-81
2022/07/04 03:54:39;;;;;;;;;4.00;4.00;;;;;17.12;64.48;101378.97;4991068;28;45317;-81
2022/07/04 03:57:07;;;;;;;;;4.00;4.00;;;;;17.11;65.02;101374.53;4992407;28;45464;-81
2022/07/04 03:59:33;;;;;;;;;1.00;1.00;;;;;17.10;64.91;101361.97;4991085;28;46665;-81
2022/07/04 04:01:58;;;;;;;;;2.67;2.67;;;;;17.06;64.82;101368.25;4991697;28;44906;-81
2022/07/04 04:07:09;;;;;;;;;2.00;2.00;;;;;17.12;64.91;101384.34;4911505;29;45445;-81
2022/07/04 04:09:37;;;;;;;;;3.00;3.00;;;;;17.09;64.68;101371.84;4895349;29;47114;-82
2022/07/04 04:12:03;;;;;;;;;2.00;2.00;;;;;17.08;65.16;101378.09;4930437;28;45657;-82
2022/07/04 04:14:28;;;;;;;;;2.00;2.00;;;;;17.06;65.30;101384.38;4916141;28;45436;-81
2022/07/04 04:16:54;;;;;;;;;2.00;2.00;;;;;17.00;65.07;101375.41;4948090;28;45361;-81
2022/07/04 04:19:22;;;;;;;;;3.67;2.00;;;;;17.08;65.36;101383.47;4931865;28;46131;-81
2022/07/04 04:21:47;;;;;;;;;2.00;2.00;;;;;17.06;64.68;101395.13;4932099;28;45457;-81
2022/07/04 04:24:13;;;;;;;;;1.00;1.00;;;;;17.07;64.58;101391.56;4915947;28;45636;-82
2022/07/04 04:26:38;;;;;;;;;2.00;2.00;;;;;17.08;64.51;101388.84;4932642;28;45425;-81
2022/07/04 04:29:04;;;;;;;;;3.33;3.33;;;;;17.24;64.34;101411.19;4932357;28;45468;-82
2022/07/04 04:31:30;;;;;;;;;2.67;2.67;;;;;17.35;64.32;101409.38;4932144;28;45401;-81
2022/07/04 04:33:56;;;;;;;;;1.00;1.00;;;;;17.37;64.28;101404.91;4916878;28;45465;-82
2022/07/04 04:36:23;;;;;;;;;3.00;2.33;;;;;17.49;63.60;101413.81;4931403;28;45468;-82
2022/07/04 04:38:51;;;;;;;;;3.33;1.67;;;;;17.54;63.79;101412.91;4947460;28;46790;-81
2022/07/04 04:41:16;;;;;;;;;2.00;2.00;;;;;17.67;63.31;101416.41;4914389;28;45394;-83
2022/07/04 04:43:42;;;;;;;;;4.00;4.00;;;;;17.73;63.33;101404.75;4947813;28;45487;-82
2022/07/04 04:46:09;;;;;;;;;3.00;3.00;;;;;17.84;63.76;101415.50;4974947;28;45576;-82
2022/07/04 04:48:34;;;;;;;;;3.00;2.00;;;;;17.92;62.88;101410.97;4957704;28;46784;-82
2022/07/04 04:51:00;;;;;;;;;2.33;2.33;;;;;17.90;62.67;101407.41;4991523;28;45388;-82
2022/07/04 04:53:29;;;;;;;;;1.00;1.00;;;;;17.99;62.37;101410.00;4974286;28;45737;-81
2022/07/04 04:55:55;;;;;;;;;2.00;2.00;;;;;18.01;62.43;101405.53;4992566;28;45353;-81
2022/07/04 04:58:22;;;;;;;;;4.00;4.00;;;;;18.16;62.08;101409.94;4992006;28;45869;-82
2022/07/04 05:00:51;;;;;;;;;2.33;2.33;;;;;18.32;62.18;101417.00;4974173;28;45550;-81
2022/07/04 05:03:17;;;;;;;;;2.00;2.00;;;;;18.39;60.83;101407.94;4992163;28;45371;-82
2022/07/04 05:05:45;;;;;;;;;2.00;2.00;;;;;18.48;60.73;101415.09;4991094;28;45464;-82
2022/07/04 05:11:54;;;;;;;;;2.00;2.00;;;;;18.79;59.24;101418.44;4976718;28;45417;-81
2022/07/04 05:14:25;;;;;;;;;2.00;2.00;;;;;18.87;59.39;101404.88;4954883;28;45774;-81
2022/07/04 05:16:53;;;;;;;;;2.33;2.33;;;;;18.92;58.96;101405.72;4972833;28;45487;-82
2022/07/04 05:19:19;;;;;;;;;1.00;1.00;;;;;19.06;59.05;101413.69;4973381;28;45349;-81
2022/07/04 05:21:45;;;;;;;;;1.33;1.33;;;;;19.08;58.57;101413.66;4972627;28;45739;-81
2022/07/04 05:24:11;;;;;;;;;2.33;2.33;;;;;19.09;58.35;101420.88;4972684;28;45391;-81
2022/07/04 05:26:37;;;;;;;;;3.00;3.00;;;;;19.03;58.34;101410.13;4973453;28;45339;-81
2022/07/04 05:29:37;;;;;;;;;2.67;2.00;;;;;19.13;58.15;101412.72;4972681;28;45534;-82
2022/07/04 05:32:12;;;;;;;;;2.33;2.00;;;;;19.26;57.90;101413.47;4954410;28;45786;-82
2022/07/04 05:34:38;;;;;;;;;3.00;2.00;;;;;19.43;58.08;101409.69;4971248;28;44735;-82
2022/07/04 05:37:03;;;;;;;;;2.00;2.00;;;;;19.51;57.24;101402.38;4956462;28;45482;-82
2022/07/04 05:39:29;;;;;;;;;3.67;2.33;;;;;19.66;57.35;101394.09;4989642;28;45523;-82
2022/07/04 05:41:56;;;;;;;;;4.00;3.33;;;;;19.83;57.01;101393.91;4973003;28;45429;-82
2022/07/04 05:44:22;;;;;;;;;3.67;2.00;;;;;19.96;56.72;101398.22;4989016;28;45417;-82
2022/07/04 05:46:48;;;;;;;;;1.67;1.67;;;;;20.02;56.01;101402.66;4993653;28;45349;-82
2022/07/04 05:49:14;;;;;;;;;4.00;2.67;;;;;19.95;56.35;101392.84;5011441;28;45667;-82
2022/07/04 05:51:42;;;;;;;;;3.67;3.00;;;;;19.89;56.47;101385.72;5008666;28;45729;-87
2022/07/04 05:57:31;;;;;;;;;4.00;3.00;;;;;19.97;57.02;101408.09;5011768;28;45372;-87
2022/07/04 05:59:57;;;;;;;;;1.67;1.67;;;;;20.10;57.00;101400.72;4991931;28;46270;-87
2022/07/04 06:02:22;;;;;;;;;1.00;1.00;;;;;20.14;56.33;101397.06;5010277;28;45461;-86
2022/07/04 06:04:48;;;;;;;;;2.67;2.67;;;;;20.28;56.15;101404.03;4993180;28;45731;-86
2022/07/04 06:07:13;;;;;;;;;3.00;3.00;;;;;20.27;55.87;101383.38;5008208;28;45661;-87
2022/07/04 06:09:43;;;;;;;;;4.00;4.00;;;;;20.32;55.79;101368.88;5009098;28;45272;-87
2022/07/04 06:12:09;;;;;;;;;4.00;3.00;;;;;20.51;55.46;101382.06;5009648;28;45531;-87
2022/07/04 06:14:38;;;;;;;;;3.00;3.00;;;;;20.55;55.05;101373.00;5129988;22;46285;-86
2022/07/04 06:17:04;;;;;;;;;3.33;3.33;;;;;20.62;55.21;101385.50;4993066;28;45310;-86
2022/07/04 06:19:31;;;;;;;;;2.00;2.00;;;;;20.79;54.96;101401.44;4992456;28;46607;-86
2022/07/04 06:21:56;;;;;;;;;4.00;4.00;;;;;20.73;54.64;101410.53;5009609;28;44762;-86
2022/07/04 06:24:25;;;;;;;;;4.00;4.00;;;;;20.72;55.38;101418.69;4994778;28;45306;-86
2022/07/04 06:26:51;;;;;;;;;3.33;3.33;;;;;20.45;54.77;101387.59;5013062;28;45343;-87
2022/07/04 06:29:30;;;;;;;;;3.67;3.67;;;;;20.51;55.53;101377.56;4996535;28;47177;-87
2022/07/04 06:32:08;;;;;;;;;4.00;4.00;;;;;20.65;54.85;101392.69;4996264;28;45370;-87
2022/07/04 06:37:27;;;;;;;;;3.00;3.00;;;;;20.63;53.79;101379.19;5013118;28;44964;-87
2022/07/04 06:39:54;;;;;;;;;3.00;3.00;;;;;20.69;54.15;101400.72;5011933;28;45591;-87
2022/07/04 06:42:23;;;;;;;;;4.00;3.00;;;;;20.74;54.16;101406.94;5011107;28;45327;-86
2022/07/04 06:44:53;;;;;;;;;4.00;3.00;;;;;20.85;54.12;101417.56;5013068;28;44876;-86
2022/07/04 06:47:22;;;;;;;;;2.67;2.00;;;;;20.83;53.76;101389.66;4978031;28;45194;-86
2022/07/04 06:49:47;;;;;;;;;3.67;3.00;;;;;20.94;53.59;101390.34;4995421;28;46908;-87
2022/07/04 06:52:22;;;;;;;;;1.00;1.00;;;;;21.06;53.19;101393.75;5009881;28;45775;-86
2022/07/04 06:54:50;;;;;;;;;5.00;5.00;;;;;21.24;53.16;101397.91;4993709;28;45388;-86
2022/07/04 06:57:30;;;;;;;;;3.00;2.00;;;;;21.23;52.24;101377.16;5012152;28;45339;-86
2022/07/04 07:00:08;;;;;;;;;4.33;3.33;;;;;21.44;51.76;101428.19;4993946;28;47176;-86
2022/07/04 07:02:59;;;;;;;;;3.00;3.00;;;;;21.39;51.93;101427.38;4995459;28;45569;-84
2022/07/04 07:05:48;;;;;;;;;1.33;1.33;;;;;21.09;51.28;101388.28;4973936;28;44872;-87
2022/07/04 07:08:26;;;;;;;;;3.67;3.67;;;;;21.13;51.68;101404.41;4983023;28;44984;-86
2022/07/04 07:11:14;;;;;;;;;5.00;4.33;;;;;21.08;52.28;101389.19;4954300;28;48008;-86
2022/07/04 07:13:57;;;;;;;;;3.33;3.00;;;;;21.31;51.40;101424.81;4975524;28;44744;-85
2022/07/04 07:16:25;;;;;;;;;2.00;2.00;;;;;21.38;51.75;101426.47;4973843;28;45378;-85
2022/07/04 07:18:55;;;;;;;;;4.00;4.00;;;;;21.33;51.23;101406.75;4975178;28;44999;-84
2022/07/04 07:21:31;;;;;;;;;2.33;2.33;;;;;21.47;51.07;101403.78;4974739;28;45439;-83
2022/07/04 07:27:32;;;;;;;;;2.00;2.00;;;;;21.67;49.76;101430.44;4897777;29;44869;-84
2022/07/04 07:47:43;;;;;;;;;4.00;2.00;;;;;22.63;47.10;101433.69;4935804;28;44899;-83
2022/07/04 08:17:10;;;;;;;;;3.00;3.00;;;;;23.30;44.86;101406.63;4474358;23;47070;31
2022/07/04 08:50:21;;;;;;;;;2.00;2.00;;;;;22.62;43.27;101364.13;5467790;23;47065;-84
2022/07/04 08:53:10;;;;;;;;;3.00;3.00;;;;;22.55;44.23;101353.44;4957097;28;46911;-85
2022/07/04 09:02:38;;;;;;;;;1.75;1.75;;;;;23.06;43.49;101395.50;4858464;29;45458;-85
2022/07/04 09:22:28;;;;;;;;;3.00;2.00;;;;;22.93;42.49;101351.53;4982316;28;44891;-86
2022/07/04 10:02:32;;;;;;;;;2.00;2.00;;;;;23.49;40.87;101377.13;4929415;28;45080;-86
2022/07/04 10:05:37;;;;;;;;;;;;;;;;;;;;;
2022/07/04 10:08:46;;;;;;;;;3.00;1.67;;;;;23.49;40.85;101371.69;4956106;28;67926;-85
2022/07/04 10:27:10;;;;;;;;;;;;;;;;;;;;;
2022/07/04 10:30:09;;;;;;;;;;;;;;;;;;;;;
2022/07/04 10:32:43;;;;;;;;;2.33;2.33;;;;;23.68;38.75;101358.47;4965461;28;65065;-82
2022/07/04 10:49:07;;;;;;;;;2.00;2.00;;;;;23.73;39.58;101357.38;4934804;28;45476;-84
2022/07/04 10:51:58;;;;;;;;;2.67;2.00;;;;;23.66;38.69;101358.50;4920639;28;44959;-82
2022/07/04 10:54:36;;;;;;;;;3.00;3.00;;;;;23.41;38.74;101338.44;4929467;28;45784;-82
2022/07/04 10:57:31;;;;;;;;;2.67;2.67;;;;;23.53;38.61;101352.56;4918976;28;45621;-82
2022/07/04 11:00:07;;;;;;;;;4.00;4.00;;;;;23.48;38.63;101334.63;4930577;28;45553;-84
2022/07/04 11:02:41;;;;;;;;;3.00;3.00;;;;;23.54;37.61;101339.88;4924711;28;46053;-83
2022/07/04 11:21:52;;;;;;;;;4.00;4.00;;;;;23.68;39.04;101332.19;4831123;29;45541;-82
2022/07/04 11:28:19;;;;;;;;;4.00;3.00;;;;;23.91;37.77;101346.91;4867357;29;45558;-84
2022/07/04 11:37:48;;;;;;;;;;;;;;;;;;;;;
2022/07/04 11:46:48;;;;;;;;;2.00;2.00;;;;;23.83;37.00;101300.06;4862061;29;45017;-83
2022/07/04 11:52:53;;;;;;;;;3.00;3.00;;;;;24.02;35.90;101327.56;4878100;29;45342;-79
2022/07/04 11:56:02;;;;;;;;;2.00;2.00;;;;;24.10;36.51;101329.06;4864724;29;45039;-82
2022/07/04 11:58:44;;;;;;;;;3.00;3.00;;;;;23.97;36.66;101286.94;4880951;28;45083;-82
2022/07/04 12:04:27;;;;;;;;;1.00;1.00;;;;;24.10;36.95;101320.91;4934179;28;44734;-81
2022/07/04 12:06:54;;;;;;;;;2.00;2.00;;;;;23.93;36.66;101279.81;4938473;28;45341;-80
2022/07/04 12:09:30;;;;;;;;;2.33;2.33;;;;;23.81;37.02;101250.34;4938049;28;44885;-80
2022/07/04 12:11:59;;;;;;;;;1.67;1.67;;;;;24.10;37.30;101301.91;4938504;28;45227;-81
2022/07/04 12:14:31;;;;;;;;;2.00;2.00;;;;;24.06;36.51;101288.47;4935943;28;45373;-81
2022/07/04 12:20:28;;;;;;;;;1.00;1.00;;;;;24.11;36.43;101279.19;4927939;28;45417;-81
2022/07/04 12:23:00;;;;;;;;;2.67;2.67;;;;;24.12;36.06;101275.56;4937440;28;45413;-80
2022/07/04 12:25:40;;;;;;;;;2.33;2.33;;;;;24.07;36.73;101257.63;4935587;28;44885;-82
2022/07/04 12:28:32;;;;;;;;;;;;;;;;;;;;;
2022/07/04 12:31:02;;;;;;;;;2.33;2.33;;;;;24.10;36.21;101247.56;4954656;28;65006;-80
2022/07/04 12:33:43;;;;;;;;;2.00;2.00;;;;;24.23;35.87;101244.41;4957085;28;45483;-80
2022/07/04 12:36:09;;;;;;;;;3.00;3.00;;;;;24.31;35.04;101262.22;4939991;28;44697;-81
2022/07/04 12:38:45;;;;;;;;;3.00;3.00;;;;;24.36;35.68;101279.25;4956384;28;45591;-81
2022/07/04 12:41:45;;;;;;;;;1.67;1.67;;;;;24.17;35.74;101249.09;4962876;28;44926;-81
2022/07/04 12:47:33;;;;;;;;;2.00;2.00;;;;;24.13;35.99;101228.41;4959101;28;45419;-82
2022/07/04 12:53:37;;;;;;;;;1.33;1.00;;;;;24.32;36.22;101258.56;4951889;28;45464;-81
2022/07/04 12:56:45;;;;;;;;;1.67;1.67;;;;;24.33;36.31;101262.16;4925898;28;46772;-81
2022/07/04 13:06:26;;;;;;;;;3.00;1.67;;;;;24.24;35.99;101211.75;4956067;28;45443;-81
2022/07/04 13:08:59;;;;;;;;;2.00;2.00;;;;;24.57;35.48;101249.56;4939335;28;47512;-80
2022/07/04 13:14:34;;;;;;;;;0.67;0.67;;;;;24.59;35.37;101216.88;4944021;28;44879;-79
2022/07/04 13:17:00;;;;;;;;;1.67;1.67;;;;;24.63;34.99;101218.53;4955517;28;45571;-81
2022/07/04 13:19:31;;;;;;;;;2.00;2.00;;;;;24.76;35.34;101230.72;4957347;28;45465;-82
2022/07/04 13:21:57;;;;;;;;;2.00;2.00;;;;;24.70;35.11;101215.56;4958412;28;44742;-82
2022/07/04 13:24:25;;;;;;;;;4.00;3.00;;;;;24.69;34.68;101221.03;4940796;28;45393;-82
2022/07/04 13:27:42;;;;;;;;;1.67;1.67;;;;;24.79;34.84;101235.19;4957759;28;45524;-82
2022/07/04 13:30:25;;;;;;;;;1.67;1.67;;;;;24.68;34.63;101224.69;4918097;29;46711;-82
2022/07/04 13:32:50;;;;;;;;;2.00;2.00;;;;;24.55;34.72;101208.81;4914666;28;44914;-82
2022/07/04 13:35:32;;;;;;;;;1.00;1.00;;;;;24.49;34.62;101198.13;4901143;29;44768;-81
2022/07/04 13:37:57;;;;;;;;;1.00;0.67;;;;;24.60;34.73;101202.31;4900034;28;45406;-80
2022/07/04 13:40:23;;;;;;;;;1.00;1.00;;;;;24.80;34.60;101221.50;4900569;29;45151;-82
2022/07/04 13:45:48;;;;;;;;;3.00;3.00;;;;;25.24;34.20;101227.09;4903144;28;44921;-82
2022/07/04 13:48:28;;;;;;;;;3.00;3.00;;;;;25.88;33.54;101195.47;4899030;29;44858;-82
2022/07/04 13:51:07;;;;;;;;;1.00;1.00;;;;;27.91;30.33;101224.34;4914134;29;47496;-81
2022/07/04 13:56:28;;;;;;;;;1.33;1.33;;;;;32.03;25.70;101196.31;4900161;28;45530;-81
2022/07/04 13:59:37;;;;;;;;;2.00;2.00;;;;;33.59;26.15;101203.44;4885015;28;44927;-82
2022/07/04 14:02:06;;;;;;;;;1.00;1.00;;;;;34.65;24.74;101164.88;4898215;28;45645;-82
2022/07/04 14:04:39;;;;;;;;;1.33;1.00;;;;;35.64;21.70;101167.78;5129721;23;44928;-82
2022/07/04 14:07:46;;;;;;;;;0.33;0.33;;;;;36.53;19.37;101206.31;4918580;28;45455;-82
2022/07/04 14:10:24;;;;;;;;;0.33;0.33;;;;;36.53;20.03;101203.53;4928939;28;44958;-82
2022/07/04 14:12:49;;;;;;;;;2.00;2.00;;;;;36.49;19.04;101185.44;4899080;29;46845;-83
2022/07/04 14:15:20;;;;;;;;;1.00;0.67;;;;;37.01;21.22;101197.41;4919720;28;44767;-82
2022/07/04 14:17:49;;;;;;;;;2.00;2.00;;;;;37.94;19.75;101173.13;4918811;28;45436;-81
2022/07/04 14:20:24;;;;;;;;;0.00;0.00;;;;;38.71;17.87;101191.63;4919339;28;45338;-82
2022/07/04 14:23:14;;;;;;;;;1.33;1.33;;;;;38.73;18.36;101185.91;4901240;29;46190;-83
2022/07/04 14:32:37;;;;;;;;;2.00;2.00;;;;;41.67;15.87;101169.16;4918333;28;45326;-83
2022/07/04 14:35:20;;;;;;;;;;;;;;;;;;;;;
2022/07/04 14:38:06;;;;;;;;;;;;;;;;;;;;;
2022/07/04 14:40:34;;;;;;;;;0.33;0.00;;;;;41.99;16.76;101165.53;4915676;28;67985;-82
2022/07/04 14:43:07;;;;;;;;;0.00;0.00;;;;;42.65;14.01;101185.97;4884873;29;45354;-83
2022/07/04 14:48:58;;;;;;;;;0.00;0.00;;;;;43.43;16.19;101158.22;4915862;28;44860;-82
2022/07/04 14:51:28;;;;;;;;;1.00;1.00;;;;;43.11;15.26;101175.00;4914944;29;45710;-83
2022/07/04 14:54:02;;;;;;;;;1.00;1.00;;;;;43.43;13.60;101139.53;4915398;29;44880;-82
2022/07/04 14:56:30;;;;;;;;;1.00;0.00;;;;;43.95;14.85;101150.00;4903561;28;46984;-83
2022/07/04 14:58:59;;;;;;;;;2.00;2.00;;;;;44.51;14.94;101160.06;4934983;28;45552;-82
2022/07/04 15:01:26;;;;;;;;;0.00;0.00;;;;;44.87;13.91;101165.81;4935880;28;45503;-83
2022/07/04 15:03:58;;;;;;;;;1.00;1.00;;;;;45.19;13.90;101157.13;4919660;28;45712;-82
2022/07/04 15:06:32;;;;;;;;;2.00;2.00;;;;;46.03;13.90;101151.88;4935468;28;45576;-82
2022/07/04 15:09:39;;;;;;;;;0.00;0.00;;;;;46.79;13.34;101156.84;4919473;28;46353;-82
2022/07/04 15:12:04;;;;;;;;;0.33;0.33;;;;;47.39;12.93;101151.50;4920197;28;44915;-83
2022/07/04 15:14:30;;;;;;;;;0.00;0.00;;;;;47.29;11.25;101159.50;4934749;28;45361;-82
2022/07/04 15:17:04;;;;;;;;;0.00;0.00;;;;;47.11;12.99;101123.41;4917171;28;46033;-82
2022/07/04 15:19:30;;;;;;;;;0.00;0.00;;;;;47.38;12.33;101158.19;4936899;28;44884;-82
2022/07/04 15:25:21;;;;;;;;;0.00;0.00;;;;;48.43;11.75;101146.44;4935241;28;45192;-82
2022/07/04 15:27:46;;;;;;;;;0.67;0.67;;;;;48.35;10.58;101129.75;4917480;28;47063;-82
2022/07/04 15:30:12;;;;;;;;;0.00;0.00;;;;;48.94;11.13;101156.13;4918422;28;45423;-82
2022/07/04 15:32:37;;;;;;;;;0.00;0.00;;;;;49.96;10.77;101145.81;4917755;28;45432;-82
2022/07/04 15:35:03;;;;;;;;;0.00;0.00;;;;;50.74;10.33;101146.41;4920428;28;45605;-83
2022/07/04 15:37:34;;;;;;;;;0.00;0.00;;;;;51.31;9.64;101127.22;4922051;28;46687;-82
2022/07/04 15:40:00;;;;;;;;;0.00;0.00;;;;;51.08;9.28;101135.56;4940137;28;45530;-82
2022/07/04 15:42:29;;;;;;;;;0.00;0.00;;;;;49.96;9.74;101119.50;4939929;28;45452;-83
2022/07/04 15:44:57;;;;;;;;;0.00;0.00;;;;;50.17;10.29;101153.06;4921211;28;45552;-84
2022/07/04 15:47:22;;;;;;;;;0.00;0.00;;;;;51.13;9.71;101118.72;4936014;28;46809;-83
2022/07/04 15:50:09;;;;;;;;;0.00;0.00;;;;;51.89;7.86;101124.84;4937260;28;45266;-86
2022/07/04 15:56:04;;;;;;;;;0.00;0.00;;;;;53.04;8.09;101128.16;4937723;28;45429;-84
2022/07/04 15:58:36;;;;;;;;;0.00;0.00;;;;;52.79;8.66;101120.78;4920699;28;47168;-83
2022/07/04 16:01:02;;;;;;;;;0.00;0.00;;;;;51.75;8.37;101116.50;4919983;28;44861;-83
2022/07/04 16:03:28;;;;;;;;;0.00;0.00;;;;;51.24;9.05;101115.09;5032235;23;45516;-82
2022/07/04 16:05:53;;;;;;;;;0.00;0.00;;;;;51.52;8.23;101133.47;4939039;28;44935;-83
2022/07/04 16:08:19;;;;;;;;;0.00;0.00;;;;;50.88;8.96;101122.50;4956098;28;46585;-84
2022/07/04 16:10:48;;;;;;;;;0.00;0.00;;;;;50.54;7.98;101139.00;4970995;28;45819;-83
2022/07/04 16:13:13;;;;;;;;;0.00;0.00;;;;;49.91;8.34;101119.31;4923379;28;45529;-83
2022/07/04 16:25:47;;;;;;;;;0.00;0.00;;;;;50.06;8.70;101128.34;4953745;28;44830;-84
2022/07/04 16:28:13;;;;;;;;;1.00;1.00;;;;;49.79;9.54;101119.19;4954306;28;44848;-83
2022/07/04 16:30:40;;;;;;;;;1.00;1.00;;;;;50.59;9.72;101113.69;4952843;28;45416;-83